createdAt,value
2019-03-26T00:01:05.622Z,100150.06
2019-03-26T00:03:33.789Z,100147.69
2019-03-26T00:06:01.760Z,100148.43
2019-03-26T00:08:29.730Z,100151.23
2019-03-26T00:10:58.515Z,100149.74
2019-03-26T00:13:26.798Z,100146.53
2019-03-26T00:15:54.459Z,100150.23
2019-03-26T00:18:22.426Z,100146.14
2019-03-26T00:20:50.388Z,100144.08
2019-03-26T00:23:18.362Z,100139.97
2019-03-26T00:25:46.240Z,100137.66
2019-03-26T00:28:13.992Z,100136.36
2019-03-26T00:30:41.750Z,100136.42
2019-03-26T00:33:09.514Z,100143.78
2019-03-26T00:35:37.590Z,100145.30
2019-03-26T00:38:05.457Z,100128.68
2019-03-26T00:40:33.216Z,100126.50
2019-03-26T00:43:00.990Z,100122.15
2019-03-26T00:45:28.849Z,100110.53
2019-03-26T00:47:56.612Z,100122.44
2019-03-26T00:50:24.377Z,100121.31
2019-03-26T00:52:52.854Z,100131.19
2019-03-26T00:55:22.878Z,100125.32
2019-03-26T00:57:50.333Z,100130.89
2019-03-26T01:00:33.924Z,100139.58
2019-03-26T01:03:02.036Z,100139.45
2019-03-26T01:05:29.903Z,100148.69
2019-03-26T01:07:57.878Z,100144.61
2019-03-26T01:10:26.153Z,100139.63
2019-03-26T01:12:54.323Z,100145.52
2019-03-26T01:15:21.671Z,100145.84
2019-03-26T01:17:49.441Z,100148.21
2019-03-26T01:20:17.003Z,100145.20
2019-03-26T01:22:44.763Z,100145.09
2019-03-26T01:25:12.932Z,100148.99
2019-03-26T01:27:40.696Z,100152.35
2019-03-26T01:30:08.465Z,100146.81
2019-03-26T01:32:36.224Z,100152.19
2019-03-26T01:35:05.363Z,100148.87
2019-03-26T01:37:33.091Z,100146.33
2019-03-26T01:40:00.841Z,100143.70
2019-03-26T01:42:28.712Z,100148.56
2019-03-26T01:44:56.474Z,100148.97
2019-03-26T01:47:24.240Z,100151.90
2019-03-26T01:49:52.309Z,100155.06
2019-03-26T01:52:20.480Z,100149.59
2019-03-26T01:54:48.555Z,100151.33
2019-03-26T01:57:17.240Z,100157.67
2019-03-26T01:59:45.003Z,100165.78
2019-03-26T02:02:13.175Z,100169.86
2019-03-26T02:04:41.047Z,100180.66
2019-03-26T02:07:08.812Z,100183.02
2019-03-26T02:09:36.570Z,100176.50
2019-03-26T02:12:04.331Z,100187.48
2019-03-26T02:14:32.202Z,100185.50
2019-03-26T02:16:59.961Z,100187.20
2019-03-26T02:19:27.730Z,100190.90
2019-03-26T02:21:55.593Z,100199.47
2019-03-26T02:24:23.368Z,100191.12
2019-03-26T02:26:51.121Z,100184.52
2019-03-26T02:29:18.888Z,100187.83
2019-03-26T02:31:46.645Z,100190.73
2019-03-26T02:34:14.422Z,100192.73
2019-03-26T02:36:42.384Z,100196.22
2019-03-26T02:39:10.256Z,100201.27
2019-03-26T02:41:38.317Z,100206.28
2019-03-26T02:44:06.185Z,100205.70
2019-03-26T02:46:33.945Z,100211.50
2019-03-26T02:49:01.719Z,100206.61
2019-03-26T02:51:29.680Z,100214.25
2019-03-26T02:53:58.265Z,100214.66
2019-03-26T02:56:25.717Z,100213.88
2019-03-26T02:58:53.487Z,100223.78
2019-03-26T03:01:21.655Z,100226.91
2019-03-26T03:03:49.602Z,100224.57
2019-03-26T03:09:49.056Z,100227.37
2019-03-26T03:12:19.781Z,100227.54
2019-03-26T03:14:48.169Z,100234.61
2019-03-26T03:17:16.031Z,100229.09
2019-03-26T03:19:43.796Z,100228.71
2019-03-26T03:22:11.741Z,100228.88
2019-03-26T03:24:39.520Z,100231.52
2019-03-26T03:27:25.926Z,100229.27
2019-03-26T03:29:53.694Z,100237.33
2019-03-26T03:32:21.558Z,100240.67
2019-03-26T03:34:49.321Z,100239.69
2019-03-26T03:37:17.082Z,100235.55
2019-03-26T03:39:44.844Z,100239.58
2019-03-26T03:42:12.609Z,100240.06
2019-03-26T03:44:40.584Z,100236.01
2019-03-26T03:47:09.156Z,100236.80
2019-03-26T03:49:36.409Z,100237.70
2019-03-26T03:52:04.172Z,100242.97
2019-03-26T03:54:31.836Z,100245.38
2019-03-26T03:56:59.600Z,100251.91
2019-03-26T03:59:27.467Z,100251.81
2019-03-26T04:01:55.950Z,100249.21
2019-03-26T04:04:24.120Z,100249.82
2019-03-26T04:06:52.090Z,100253.70
2019-03-26T04:09:20.066Z,100261.05
2019-03-26T04:11:48.230Z,100257.42
2019-03-26T04:14:16.325Z,100254.69
2019-03-26T04:16:44.372Z,100255.50
2019-03-26T04:19:12.455Z,100253.56
2019-03-26T04:21:40.412Z,100256.81
2019-03-26T04:24:08.483Z,100249.16
2019-03-26T04:26:36.449Z,100253.78
2019-03-26T04:29:04.326Z,100254.70
2019-03-26T04:31:32.290Z,100252.12
2019-03-26T04:34:00.255Z,100258.92
2019-03-26T04:36:28.228Z,100259.33
2019-03-26T04:38:56.290Z,100265.44
2019-03-26T04:41:25.806Z,100262.97
2019-03-26T04:43:53.768Z,100258.04
2019-03-26T04:46:21.731Z,100274.17
2019-03-26T04:48:49.708Z,100279.44
2019-03-26T04:51:17.673Z,100283.27
2019-03-26T04:53:46.258Z,100290.09
2019-03-26T04:56:14.231Z,100291.94
2019-03-26T04:58:45.057Z,100291.94
2019-03-26T05:01:13.331Z,100299.62
2019-03-26T05:03:41.509Z,100296.30
2019-03-26T05:06:09.472Z,100297.91
2019-03-26T05:08:37.543Z,100295.66
2019-03-26T05:11:05.516Z,100295.09
2019-03-26T05:13:33.686Z,100295.02
2019-03-26T05:16:01.551Z,100290.36
2019-03-26T05:18:29.527Z,100294.28
2019-03-26T05:20:58.412Z,100294.28
2019-03-26T05:23:26.385Z,100293.11
2019-03-26T05:25:54.455Z,100284.21
2019-03-26T05:28:22.521Z,100281.67
2019-03-26T05:30:50.493Z,100273.68
2019-03-26T05:33:18.359Z,100273.68
2019-03-26T05:35:46.433Z,100280.50
2019-03-26T05:38:14.403Z,100280.50
2019-03-26T05:40:42.267Z,100292.34
2019-03-26T05:43:10.231Z,100302.06
2019-03-26T05:45:38.102Z,100302.78
2019-03-26T05:48:06.070Z,100311.80
2019-03-26T05:50:34.136Z,100316.09
2019-03-26T05:53:02.520Z,100314.25
2019-03-26T05:55:30.487Z,100315.64
2019-03-26T05:57:58.763Z,100312.83
2019-03-26T06:00:27.551Z,100317.55
2019-03-26T06:02:55.519Z,100316.17
2019-03-26T06:05:23.385Z,100315.71
2019-03-26T06:07:51.451Z,100319.11
2019-03-26T06:10:19.418Z,100321.97
2019-03-26T06:12:50.180Z,100315.67
2019-03-26T06:15:17.206Z,100326.90
2019-03-26T06:17:45.172Z,100324.33
2019-03-26T06:20:13.143Z,100328.80
2019-03-26T06:22:41.212Z,100312.34
2019-03-26T06:25:09.281Z,100314.34
2019-03-26T06:27:37.146Z,100318.31
2019-03-26T06:30:07.878Z,100313.67
2019-03-26T06:32:35.951Z,100316.23
2019-03-26T06:35:06.276Z,100321.55
2019-03-26T06:37:34.140Z,100322.61
2019-03-26T06:40:04.779Z,100329.44
2019-03-26T06:42:32.840Z,100336.70
2019-03-26T06:45:00.713Z,100332.69
2019-03-26T06:47:28.677Z,100334.77
2019-03-26T06:49:56.647Z,100339.30
2019-03-26T06:52:25.129Z,100343.86
2019-03-26T06:54:52.887Z,100349.16
2019-03-26T06:57:20.861Z,100348.13
2019-03-26T06:59:48.825Z,100346.91
2019-03-26T07:02:17.312Z,100356.49
2019-03-26T07:04:45.173Z,100364.45
2019-03-26T07:07:13.447Z,100375.16
2019-03-26T07:09:41.417Z,100379.24
2019-03-26T07:12:09.386Z,100386.63
2019-03-26T07:14:37.457Z,100386.53
2019-03-26T07:17:05.938Z,100385.13
2019-03-26T07:19:33.807Z,100389.62
2019-03-26T07:22:02.285Z,100390.82
2019-03-26T07:24:30.051Z,100381.67
2019-03-26T07:26:58.019Z,100387.02
2019-03-26T07:29:25.981Z,100386.69
2019-03-26T07:31:53.954Z,100384.50
2019-03-26T07:34:21.920Z,100385.52
2019-03-26T07:36:49.889Z,100384.39
2019-03-26T07:39:17.827Z,100389.47
2019-03-26T07:41:45.829Z,100386.25
2019-03-26T07:44:13.720Z,100382.66
2019-03-26T07:46:41.768Z,100382.66
2019-03-26T07:49:09.736Z,100383.28
2019-03-26T07:51:37.700Z,100377.24
2019-03-26T07:54:06.289Z,100381.41
2019-03-26T07:56:34.352Z,100386.89
2019-03-26T07:59:02.448Z,100387.89
2019-03-26T08:01:30.802Z,100379.95
2019-03-26T08:03:58.673Z,100384.73
2019-03-26T08:06:26.541Z,100383.73
2019-03-26T08:08:54.611Z,100388.56
2019-03-26T08:11:22.493Z,100379.44
2019-03-26T08:13:50.581Z,100383.44
2019-03-26T08:16:18.421Z,100393.67
2019-03-26T08:18:46.386Z,100394.34
2019-03-26T08:21:14.247Z,100393.42
2019-03-26T08:23:42.215Z,100397.09
2019-03-26T08:26:10.187Z,100404.03
2019-03-26T08:28:38.150Z,100405.36
2019-03-26T08:31:06.122Z,100390.88
2019-03-26T08:33:34.086Z,100400.27
2019-03-26T08:36:02.263Z,100402.01
2019-03-26T08:38:33.413Z,100398.67
2019-03-26T08:40:59.737Z,100399.63
2019-03-26T08:43:27.819Z,100406.13
2019-03-26T08:45:55.776Z,100405.69
2019-03-26T08:48:23.749Z,100409.78
2019-03-26T08:50:51.711Z,100408.86
2019-03-26T08:53:20.497Z,100419.34
2019-03-26T08:55:48.158Z,100423.75
2019-03-26T08:58:16.130Z,100414.59
2019-03-26T09:00:44.620Z,100430.09
2019-03-26T09:03:12.681Z,100422.61
2019-03-26T09:05:40.564Z,100420.88
2019-03-26T09:08:08.515Z,100422.77
2019-03-26T09:10:36.582Z,100420.31
2019-03-26T09:13:04.656Z,100422.64
2019-03-26T09:15:32.730Z,100418.55
2019-03-26T09:18:00.721Z,100418.38
2019-03-26T09:20:28.666Z,100420.09
2019-03-26T09:22:56.733Z,100421.18
2019-03-26T09:25:24.707Z,100413.20
2019-03-26T09:27:52.681Z,100419.33
2019-03-26T09:30:20.645Z,100421.57
2019-03-26T09:32:48.512Z,100414.23
2019-03-26T09:35:16.483Z,100420.00
2019-03-26T09:37:44.445Z,100417.55
2019-03-26T09:40:13.643Z,100419.84
2019-03-26T09:42:42.530Z,100421.28
2019-03-26T09:45:11.011Z,100427.64
2019-03-26T09:47:38.984Z,100431.16
2019-03-26T09:50:08.953Z,100431.23
2019-03-26T09:52:36.863Z,100424.98
2019-03-26T09:55:07.494Z,100422.33
2019-03-26T09:57:35.974Z,100416.91
2019-03-26T10:00:09.274Z,100423.56
2019-03-26T10:02:37.544Z,100418.55
2019-03-26T10:05:05.819Z,100413.31
2019-03-26T10:07:33.583Z,100405.81
2019-03-26T10:10:03.192Z,100402.73
2019-03-26T10:12:31.053Z,100409.66
2019-03-26T10:14:59.029Z,100408.16
2019-03-26T10:17:26.792Z,100402.01
2019-03-26T10:19:54.786Z,100399.09
2019-03-26T10:22:22.729Z,100391.58
2019-03-26T10:24:50.797Z,100395.35
2019-03-26T10:27:18.813Z,100394.83
2019-03-26T10:29:46.731Z,100388.13
2019-03-26T10:32:14.814Z,100381.20
2019-03-26T10:34:42.882Z,100388.54
2019-03-26T10:37:10.856Z,100395.08
2019-03-26T10:39:38.912Z,100392.39
2019-03-26T10:42:07.170Z,100385.11
2019-03-26T10:44:35.574Z,100388.55
2019-03-26T10:47:03.541Z,100380.05
2019-03-26T10:49:32.636Z,100386.48
2019-03-26T10:52:00.500Z,100376.52
2019-03-26T10:54:29.798Z,100378.02
2019-03-26T10:56:57.563Z,100380.20
2019-03-26T10:59:25.529Z,100377.80
2019-03-26T11:01:53.906Z,100379.13
2019-03-26T11:04:21.983Z,100383.71
2019-03-26T11:06:50.839Z,100390.36
2019-03-26T11:09:24.267Z,100385.23
2019-03-26T11:11:48.548Z,100387.25
2019-03-26T11:14:16.414Z,100384.29
2019-03-26T11:16:44.282Z,100383.50
2019-03-26T11:19:12.252Z,100390.23
2019-03-26T11:21:40.215Z,100387.23
2019-03-26T11:24:08.185Z,100379.78
2019-03-26T11:26:35.997Z,100384.66
2019-03-26T11:29:04.431Z,100380.47
2019-03-26T11:31:32.815Z,100387.38
2019-03-26T11:34:00.776Z,100384.49
2019-03-26T11:36:28.861Z,100390.19
2019-03-26T11:38:57.148Z,100386.20
2019-03-26T11:41:25.706Z,100377.97
2019-03-26T11:43:54.153Z,100381.66
2019-03-26T11:46:23.599Z,100374.18
2019-03-26T11:48:52.950Z,100374.28
2019-03-26T11:51:20.964Z,100371.73
2019-03-26T11:53:49.866Z,100373.28
2019-03-26T11:56:18.023Z,100367.16
2019-03-26T11:58:45.994Z,100363.55
2019-03-26T12:01:14.263Z,100362.80
2019-03-26T12:03:42.547Z,100359.81
2019-03-26T12:06:10.515Z,100354.78
2019-03-26T12:08:38.686Z,100358.52
2019-03-26T12:11:06.659Z,100355.29
2019-03-26T12:13:34.729Z,100355.37
2019-03-26T12:16:02.701Z,100349.17
2019-03-26T12:18:30.670Z,100351.45
2019-03-26T12:20:58.733Z,100334.95
2019-03-26T12:23:26.706Z,100338.34
2019-03-26T12:25:54.772Z,100336.91
2019-03-26T12:28:22.739Z,100340.33
2019-03-26T12:30:50.607Z,100342.26
2019-03-26T12:33:18.676Z,100344.23
2019-03-26T12:35:46.650Z,100342.09
2019-03-26T12:38:16.256Z,100346.41
2019-03-26T12:40:44.031Z,100351.59
2019-03-26T12:43:11.985Z,100348.20
2019-03-26T12:45:39.957Z,100343.59
2019-03-26T12:48:08.023Z,100344.48
2019-03-26T12:50:36.094Z,100354.97
2019-03-26T12:53:04.375Z,100353.85
2019-03-26T12:55:32.342Z,100346.04
2019-03-26T12:58:00.310Z,100354.23
2019-03-26T13:00:31.555Z,100347.41
2019-03-26T13:03:00.242Z,100347.90
2019-03-26T13:05:28.001Z,100334.84
2019-03-26T13:07:55.968Z,100344.54
2019-03-26T13:10:23.943Z,100342.53
2019-03-26T13:12:52.111Z,100347.58
2019-03-26T13:15:19.983Z,100350.03
2019-03-26T13:17:48.152Z,100345.91
2019-03-26T13:20:16.122Z,100344.59
2019-03-26T13:22:44.193Z,100347.61
2019-03-26T13:25:12.260Z,100336.70
2019-03-26T13:27:40.437Z,100347.94
2019-03-26T13:30:08.613Z,100342.96
2019-03-26T13:32:36.687Z,100336.50
2019-03-26T13:35:06.187Z,100335.42
2019-03-26T13:37:34.054Z,100343.53
2019-03-26T13:40:02.669Z,100338.90
2019-03-26T13:42:30.397Z,100340.42
2019-03-26T13:44:58.464Z,100340.06
2019-03-26T13:47:26.535Z,100342.34
2019-03-26T13:49:54.503Z,100339.27
2019-03-26T13:52:22.886Z,100334.28
2019-03-26T13:54:50.860Z,100332.83
2019-03-26T13:57:18.818Z,100331.56
2019-03-26T13:59:49.020Z,100340.81
2019-03-26T14:02:16.909Z,100341.20
2019-03-26T14:04:44.591Z,100332.14
2019-03-26T14:07:12.542Z,100331.70
2019-03-26T14:09:40.711Z,100337.80
2019-03-26T14:12:08.578Z,100332.14
2019-03-26T14:14:36.549Z,100336.24
2019-03-26T14:17:05.734Z,100331.41
2019-03-26T14:19:33.715Z,100329.11
2019-03-26T14:22:01.687Z,100337.73
2019-03-26T14:24:29.757Z,100334.63
2019-03-26T14:26:57.726Z,100339.05
2019-03-26T14:29:26.308Z,100331.87
2019-03-26T14:31:54.270Z,100325.97
2019-03-26T14:34:22.250Z,100343.03
2019-03-26T14:36:50.215Z,100332.39
2019-03-26T14:39:18.488Z,100339.42
2019-03-26T14:41:46.456Z,100338.30
2019-03-26T14:44:14.421Z,100336.97
2019-03-26T14:46:42.288Z,100341.52
2019-03-26T14:49:10.257Z,100349.58
2019-03-26T14:51:38.227Z,100345.42
2019-03-26T14:54:06.704Z,100351.66
2019-03-26T14:56:34.676Z,100349.80
2019-03-26T14:59:02.645Z,100346.63
2019-03-26T15:01:31.032Z,100354.45
2019-03-26T15:03:58.886Z,100358.23
2019-03-26T15:06:26.856Z,100353.99
2019-03-26T15:08:54.828Z,100359.34
2019-03-26T15:11:22.801Z,100360.52
2019-03-26T15:13:50.865Z,100357.97
2019-03-26T15:16:18.839Z,100358.55
2019-03-26T15:18:47.004Z,100359.82
2019-03-26T15:21:15.079Z,100356.55
2019-03-26T15:23:43.146Z,100357.52
2019-03-26T15:26:11.219Z,100361.59
2019-03-26T15:28:40.010Z,100360.59
2019-03-26T15:31:07.977Z,100361.23
2019-03-26T15:33:35.948Z,100365.45
2019-03-26T15:36:04.115Z,100364.07
2019-03-26T15:38:32.086Z,100357.38
2019-03-26T15:41:00.051Z,100360.80
2019-03-26T15:43:28.029Z,100353.50
2019-03-26T15:45:56.092Z,100364.53
2019-03-26T15:48:23.957Z,100368.57
2019-03-26T15:50:52.138Z,100375.95
2019-03-26T15:53:20.619Z,100387.11
2019-03-26T15:55:48.381Z,100397.22
2019-03-26T15:58:16.249Z,100396.80
2019-03-26T16:00:44.624Z,100408.27
2019-03-26T16:03:12.388Z,100405.09
2019-03-26T16:05:40.257Z,100405.75
2019-03-26T16:08:08.229Z,100412.84
2019-03-26T16:10:36.101Z,100411.58
2019-03-26T16:13:04.259Z,100420.93
2019-03-26T16:15:43.507Z,100429.75
2019-03-26T16:18:02.864Z,100420.42
2019-03-26T16:20:30.933Z,100434.03
2019-03-26T16:22:59.009Z,100435.33
2019-03-26T16:25:27.077Z,100445.09
2019-03-26T16:27:55.140Z,100466.41
2019-03-26T16:30:23.225Z,100465.09
2019-03-26T16:32:51.085Z,100458.20
2019-03-26T16:35:19.049Z,100466.53
2019-03-26T16:37:47.016Z,100469.41
2019-03-26T16:40:15.091Z,100469.52
2019-03-26T16:42:42.960Z,100474.67
2019-03-26T16:45:11.028Z,100480.82
2019-03-26T16:47:38.994Z,100476.28
2019-03-26T16:50:07.992Z,100487.94
2019-03-26T16:52:36.370Z,100487.70
2019-03-26T16:55:05.678Z,100486.72
2019-03-26T16:57:33.533Z,100486.72
2019-03-26T17:00:01.815Z,100499.02
2019-03-26T17:02:30.398Z,100499.22
2019-03-26T17:04:57.948Z,100506.48
2019-03-26T17:07:26.018Z,100505.84
2019-03-26T17:09:53.986Z,100505.84
2019-03-26T17:12:22.073Z,100510.70
2019-03-26T17:14:50.743Z,100501.84
2019-03-26T17:17:18.718Z,100517.36
2019-03-26T17:19:46.696Z,100515.89
2019-03-26T17:22:14.651Z,100517.16
2019-03-26T17:24:42.927Z,100518.74
2019-03-26T17:27:11.021Z,100522.45
2019-03-26T17:29:39.089Z,100515.77
2019-03-26T17:32:07.348Z,100521.85
2019-03-26T17:34:35.333Z,100522.37
2019-03-26T17:37:03.286Z,100527.89
2019-03-26T17:39:31.781Z,100530.20
2019-03-26T17:42:00.032Z,100527.05
2019-03-26T17:44:28.121Z,100524.24
2019-03-26T17:46:57.309Z,100532.86
2019-03-26T17:49:24.872Z,100530.20
2019-03-26T17:51:53.659Z,100528.55
2019-03-26T17:54:22.029Z,100531.48
2019-03-26T17:56:49.999Z,100544.84
2019-03-26T17:59:18.064Z,100537.98
2019-03-26T18:01:46.460Z,100537.98
2019-03-26T18:04:14.210Z,100535.17
2019-03-26T18:06:42.286Z,100540.27
2019-03-26T18:09:10.260Z,100534.17
2019-03-26T18:11:38.218Z,100534.17
2019-03-26T18:14:06.196Z,100538.72
2019-03-26T18:16:34.371Z,100538.42
2019-03-26T18:19:02.734Z,100537.26
2019-03-26T18:21:30.712Z,100544.24
2019-03-26T18:23:58.778Z,100529.81
2019-03-26T18:26:26.858Z,100537.82
2019-03-26T18:28:55.570Z,100534.91
2019-03-26T18:31:23.708Z,100538.82
2019-03-26T18:33:52.208Z,100532.45
2019-03-26T18:36:20.160Z,100534.17
2019-03-26T18:38:48.124Z,100537.25
2019-03-26T18:41:16.207Z,100545.18
2019-03-26T18:43:44.176Z,100540.67
2019-03-26T18:46:12.134Z,100533.76
2019-03-26T18:48:41.454Z,100534.70
2019-03-26T18:51:09.308Z,100535.22
2019-03-26T18:53:37.883Z,100537.26
2019-03-26T18:56:05.655Z,100530.47
2019-03-26T18:58:33.611Z,100542.44
2019-03-26T19:01:02.301Z,100540.28
2019-03-26T19:03:30.481Z,100535.83
2019-03-26T19:05:58.539Z,100537.80
2019-03-26T19:08:26.725Z,100537.28
2019-03-26T19:10:54.584Z,100532.66
2019-03-26T19:13:22.655Z,100531.93
2019-03-26T19:15:50.628Z,100544.59
2019-03-26T19:18:18.704Z,100546.04
2019-03-26T19:21:01.077Z,100540.81
2019-03-26T19:23:17.291Z,100541.11
2019-03-26T19:25:46.593Z,100545.03
2019-03-26T19:28:14.460Z,100550.84
2019-03-26T19:30:42.432Z,100544.59
2019-03-26T19:33:10.505Z,100546.00
2019-03-26T19:35:39.552Z,100541.68
2019-03-26T19:38:07.874Z,100543.28
2019-03-26T19:40:35.939Z,100546.24
2019-03-26T19:43:10.705Z,100544.50
2019-03-26T19:45:34.850Z,100547.41
2019-03-26T19:48:02.915Z,100542.91
2019-03-26T19:50:31.226Z,100549.97
2019-03-26T19:52:59.777Z,100547.58
2019-03-26T19:55:27.655Z,100550.05
2019-03-26T19:57:56.134Z,100549.28
2019-03-26T20:00:26.787Z,100545.92
2019-03-26T20:02:54.104Z,100541.59
2019-03-26T20:05:22.281Z,100552.20
2019-03-26T20:07:50.348Z,100551.79
2019-03-26T20:10:18.478Z,100552.51
2019-03-26T20:12:49.056Z,100551.46
2019-03-26T20:15:17.126Z,100550.92
2019-03-26T20:17:45.106Z,100555.92
2019-03-26T20:20:13.068Z,100560.70
2019-03-26T20:22:41.043Z,100555.78
2019-03-26T20:25:09.513Z,100558.54
2019-03-26T20:27:37.477Z,100553.52
2019-03-26T20:30:06.881Z,100548.78
2019-03-26T20:32:34.645Z,100554.25
2019-03-26T20:35:05.862Z,100560.55
2019-03-26T20:37:33.974Z,100547.21
2019-03-26T20:40:03.053Z,100549.89
2019-03-26T20:42:31.025Z,100550.73
2019-03-26T20:44:59.093Z,100556.34
2019-03-26T20:47:27.175Z,100556.36
2019-03-26T20:49:55.546Z,100557.80
2019-03-26T20:52:23.996Z,100566.13
2019-03-26T20:54:51.789Z,100566.98
2019-03-26T20:57:19.761Z,100569.70
2019-03-26T20:59:47.722Z,100577.44
2019-03-26T21:02:16.005Z,100573.78
2019-03-26T21:04:44.075Z,100573.80
2019-03-26T21:07:12.161Z,100580.50
2019-03-26T21:09:40.210Z,100581.95
2019-03-26T21:12:08.514Z,100580.08
2019-03-26T21:14:36.563Z,100581.28
2019-03-26T21:17:04.322Z,100583.91
2019-03-26T21:19:33.217Z,100584.72
2019-03-26T21:22:01.190Z,100587.16
2019-03-26T21:24:29.257Z,100580.48
2019-03-26T21:26:57.426Z,100580.52
2019-03-26T21:29:25.395Z,100585.95
2019-03-26T21:34:52.272Z,100591.16
2019-03-26T21:37:20.430Z,100596.03
2019-03-26T21:39:48.514Z,100591.33
2019-03-26T21:42:16.473Z,100595.39
2019-03-26T21:44:44.441Z,100591.68
2019-03-26T21:47:13.652Z,100588.69
2019-03-26T21:49:41.717Z,100593.17
2019-03-26T21:52:09.674Z,100593.68
2019-03-26T21:54:37.951Z,100593.17
2019-03-26T21:57:05.928Z,100587.84
2019-03-26T21:59:33.892Z,100588.42
2019-03-26T22:02:02.372Z,100589.45
2019-03-26T22:04:31.010Z,100589.16
2019-03-26T22:06:59.030Z,100593.55
2019-03-26T22:09:26.997Z,100586.64
2019-03-26T22:11:54.962Z,100587.16
2019-03-26T22:14:22.932Z,100584.64
2019-03-26T22:16:50.898Z,100591.67
2019-03-26T22:19:28.304Z,100582.95
2019-03-26T22:21:48.684Z,100590.25
2019-03-26T22:24:17.294Z,100599.22
2019-03-26T22:26:45.334Z,100595.71
2019-03-26T22:29:13.197Z,100594.41
2019-03-26T22:31:41.268Z,100598.82
2019-03-26T22:34:09.240Z,100598.05
2019-03-26T22:36:37.230Z,100606.81
2019-03-26T22:39:05.790Z,100602.59
2019-03-26T22:41:33.550Z,100602.97
2019-03-26T22:44:01.623Z,100596.16
2019-03-26T22:46:29.541Z,100599.69
2019-03-26T22:49:00.426Z,100596.59
2019-03-26T22:51:28.498Z,100595.36
2019-03-26T22:53:56.924Z,100597.00
2019-03-26T22:56:24.542Z,100586.53
2019-03-26T22:58:52.502Z,100586.30
2019-03-26T23:01:21.188Z,100587.66
2019-03-26T23:03:49.777Z,100586.88
2019-03-26T23:06:17.759Z,100596.03
2019-03-26T23:08:45.718Z,100593.47
2019-03-26T23:11:14.292Z,100593.34
2019-03-26T23:13:42.463Z,100589.45
2019-03-26T23:16:10.125Z,100589.05
2019-03-26T23:18:38.202Z,100595.70
2019-03-26T23:21:06.187Z,100596.08
2019-03-26T23:23:34.136Z,100594.03
2019-03-26T23:26:02.517Z,100593.70
2019-03-26T23:28:30.288Z,100596.27
2019-03-26T23:30:58.349Z,100588.98
2019-03-26T23:33:26.240Z,100589.28
2019-03-26T23:35:54.390Z,100585.36
2019-03-26T23:38:22.459Z,100576.70
2019-03-26T23:40:50.429Z,100577.17
2019-03-26T23:43:18.297Z,100573.61
2019-03-26T23:45:46.365Z,100575.44
2019-03-26T23:48:14.335Z,100569.32
2019-03-26T23:50:42.506Z,100576.30
2019-03-26T23:53:10.784Z,100574.53
2019-03-26T23:55:38.653Z,100579.39
2019-03-26T23:58:06.617Z,100578.52
